sensor_id;sensor_type;location;lat;lon;timestamp;temperature;humidity
24426;DHT22;12611;44.446;26.000;2024-02-23T00:02:21;11.10;70.40
24426;DHT22;12611;44.446;26.000;2024-02-23T00:04:50;11.10;70.30
24426;DHT22;12611;44.446;26.000;2024-02-23T00:07:18;11.10;70.50
24426;DHT22;12611;44.446;26.000;2024-02-23T00:09:47;11.10;70.50
24426;DHT22;12611;44.446;26.000;2024-02-23T00:12:16;11.10;70.50
24426;DHT22;12611;44.446;26.000;2024-02-23T00:14:44;11.10;70.50
24426;DHT22;12611;44.446;26.000;2024-02-23T00:17:13;11.10;70.40
24426;DHT22;12611;44.446;26.000;2024-02-23T00:19:45;11.10;70.40
24426;DHT22;12611;44.446;26.000;2024-02-23T00:22:14;11.10;70.30
24426;DHT22;12611;44.446;26.000;2024-02-23T00:24:43;11.10;70.30
24426;DHT22;12611;44.446;26.000;2024-02-23T00:27:11;11.10;71.20
24426;DHT22;12611;44.446;26.000;2024-02-23T00:29:40;11.00;71.90
24426;DHT22;12611;44.446;26.000;2024-02-23T00:32:10;11.00;71.40
24426;DHT22;12611;44.446;26.000;2024-02-23T00:34:38;11.00;71.20
24426;DHT22;12611;44.446;26.000;2024-02-23T00:37:09;11.00;71.30
24426;DHT22;12611;44.446;26.000;2024-02-23T00:39:38;11.00;71.50
24426;DHT22;12611;44.446;26.000;2024-02-23T00:42:07;11.00;71.40
24426;DHT22;12611;44.446;26.000;2024-02-23T00:44:36;10.90;71.60
24426;DHT22;12611;44.446;26.000;2024-02-23T00:47:05;11.00;71.90
24426;DHT22;12611;44.446;26.000;2024-02-23T00:49:34;11.00;71.60
24426;DHT22;12611;44.446;26.000;2024-02-23T00:52:03;10.90;71.80
24426;DHT22;12611;44.446;26.000;2024-02-23T00:54:33;10.90;71.30
24426;DHT22;12611;44.446;26.000;2024-02-23T00:57:02;10.90;71.30
24426;DHT22;12611;44.446;26.000;2024-02-23T00:59:31;10.90;71.30
24426;DHT22;12611;44.446;26.000;2024-02-23T01:01:59;10.90;71.70
24426;DHT22;12611;44.446;26.000;2024-02-23T01:04:28;10.90;71.50
24426;DHT22;12611;44.446;26.000;2024-02-23T01:06:58;10.90;71.70
24426;DHT22;12611;44.446;26.000;2024-02-23T01:09:27;10.80;71.70
24426;DHT22;12611;44.446;26.000;2024-02-23T01:11:57;10.80;71.60
24426;DHT22;12611;44.446;26.000;2024-02-23T01:14:25;10.80;71.60
24426;DHT22;12611;44.446;26.000;2024-02-23T01:16:54;10.80;71.70
24426;DHT22;12611;44.446;26.000;2024-02-23T01:19:23;10.80;71.60
24426;DHT22;12611;44.446;26.000;2024-02-23T01:21:51;10.80;71.60
24426;DHT22;12611;44.446;26.000;2024-02-23T01:24:27;10.80;71.70
24426;DHT22;12611;44.446;26.000;2024-02-23T01:26:58;10.80;72.20
24426;DHT22;12611;44.446;26.000;2024-02-23T01:29:26;10.70;71.90
24426;DHT22;12611;44.446;26.000;2024-02-23T01:31:55;10.70;71.70
24426;DHT22;12611;44.446;26.000;2024-02-23T01:34:24;10.70;71.70
24426;DHT22;12611;44.446;26.000;2024-02-23T01:36:53;10.70;71.60
24426;DHT22;12611;44.446;26.000;2024-02-23T01:39:21;10.70;71.70
24426;DHT22;12611;44.446;26.000;2024-02-23T01:41:50;10.70;71.60
24426;DHT22;12611;44.446;26.000;2024-02-23T01:44:20;10.70;71.50
24426;DHT22;12611;44.446;26.000;2024-02-23T01:46:49;10.70;71.60
24426;DHT22;12611;44.446;26.000;2024-02-23T01:49:18;10.70;71.60
24426;DHT22;12611;44.446;26.000;2024-02-23T01:51:49;10.70;71.50
24426;DHT22;12611;44.446;26.000;2024-02-23T01:54:18;10.70;71.40
24426;DHT22;12611;44.446;26.000;2024-02-23T01:56:46;10.60;71.40
24426;DHT22;12611;44.446;26.000;2024-02-23T01:59:15;10.60;71.60
24426;DHT22;12611;44.446;26.000;2024-02-23T02:01:45;10.60;71.70
24426;DHT22;12611;44.446;26.000;2024-02-23T02:04:14;10.60;71.70
24426;DHT22;12611;44.446;26.000;2024-02-23T02:06:44;10.60;71.70
24426;DHT22;12611;44.446;26.000;2024-02-23T02:09:13;10.50;71.70
24426;DHT22;12611;44.446;26.000;2024-02-23T02:11:46;10.50;72.10
24426;DHT22;12611;44.446;26.000;2024-02-23T02:14:15;10.50;72.10
24426;DHT22;12611;44.446;26.000;2024-02-23T02:16:45;10.50;72.00
24426;DHT22;12611;44.446;26.000;2024-02-23T02:19:16;10.50;72.00
24426;DHT22;12611;44.446;26.000;2024-02-23T02:21:45;10.50;72.00
24426;DHT22;12611;44.446;26.000;2024-02-23T02:24:14;10.50;72.20
24426;DHT22;12611;44.446;26.000;2024-02-23T02:26:42;10.50;72.40
24426;DHT22;12611;44.446;26.000;2024-02-23T02:29:14;10.40;72.40
24426;DHT22;12611;44.446;26.000;2024-02-23T02:31:44;10.40;72.60
24426;DHT22;12611;44.446;26.000;2024-02-23T02:34:13;10.40;72.50
24426;DHT22;12611;44.446;26.000;2024-02-23T02:36:42;10.30;72.30
24426;DHT22;12611;44.446;26.000;2024-02-23T02:39:10;10.30;72.30
24426;DHT22;12611;44.446;26.000;2024-02-23T02:41:39;10.30;72.60
24426;DHT22;12611;44.446;26.000;2024-02-23T02:44:08;10.30;72.60
24426;DHT22;12611;44.446;26.000;2024-02-23T02:46:39;10.30;72.60
24426;DHT22;12611;44.446;26.000;2024-02-23T02:49:09;10.30;72.60
24426;DHT22;12611;44.446;26.000;2024-02-23T02:51:38;10.30;72.50
24426;DHT22;12611;44.446;26.000;2024-02-23T02:54:07;10.30;72.50
24426;DHT22;12611;44.446;26.000;2024-02-23T02:56:35;10.30;72.40
24426;DHT22;12611;44.446;26.000;2024-02-23T02:59:04;10.30;72.40
24426;DHT22;12611;44.446;26.000;2024-02-23T03:01:33;10.40;72.50
24426;DHT22;12611;44.446;26.000;2024-02-23T03:04:01;10.30;72.50
24426;DHT22;12611;44.446;26.000;2024-02-23T03:06:31;10.30;72.50
24426;DHT22;12611;44.446;26.000;2024-02-23T03:09:00;10.30;72.50
24426;DHT22;12611;44.446;26.000;2024-02-23T03:11:29;10.30;72.40
24426;DHT22;12611;44.446;26.000;2024-02-23T03:13:58;10.30;72.40
24426;DHT22;12611;44.446;26.000;2024-02-23T03:16:26;10.40;72.50
24426;DHT22;12611;44.446;26.000;2024-02-23T03:18:57;10.40;72.40
24426;DHT22;12611;44.446;26.000;2024-02-23T03:21:26;10.30;72.30
24426;DHT22;12611;44.446;26.000;2024-02-23T03:23:56;10.30;72.30
24426;DHT22;12611;44.446;26.000;2024-02-23T03:26:25;10.30;72.40
24426;DHT22;12611;44.446;26.000;2024-02-23T03:28:54;10.30;72.50
24426;DHT22;12611;44.446;26.000;2024-02-23T03:31:23;10.30;72.50
24426;DHT22;12611;44.446;26.000;2024-02-23T03:33:51;10.30;72.50
24426;DHT22;12611;44.446;26.000;2024-02-23T03:36:20;10.30;72.60
24426;DHT22;12611;44.446;26.000;2024-02-23T03:38:48;10.20;72.60
24426;DHT22;12611;44.446;26.000;2024-02-23T03:41:19;10.20;72.60
24426;DHT22;12611;44.446;26.000;2024-02-23T03:43:47;10.10;72.60
24426;DHT22;12611;44.446;26.000;2024-02-23T03:46:16;10.10;72.60
24426;DHT22;12611;44.446;26.000;2024-02-23T03:48:46;10.10;72.60
24426;DHT22;12611;44.446;26.000;2024-02-23T03:51:15;10.10;72.90
24426;DHT22;12611;44.446;26.000;2024-02-23T03:53:44;10.10;72.50
24426;DHT22;12611;44.446;26.000;2024-02-23T03:56:12;10.00;72.50
24426;DHT22;12611;44.446;26.000;2024-02-23T03:58:43;10.10;72.60
24426;DHT22;12611;44.446;26.000;2024-02-23T04:01:11;10.00;72.60
24426;DHT22;12611;44.446;26.000;2024-02-23T04:03:40;10.00;72.60
24426;DHT22;12611;44.446;26.000;2024-02-23T04:06:08;10.00;72.60
24426;DHT22;12611;44.446;26.000;2024-02-23T04:08:37;10.00;72.60
24426;DHT22;12611;44.446;26.000;2024-02-23T04:11:06;10.00;72.60
24426;DHT22;12611;44.446;26.000;2024-02-23T04:13:34;9.90;72.50
24426;DHT22;12611;44.446;26.000;2024-02-23T04:16:05;9.90;72.50
24426;DHT22;12611;44.446;26.000;2024-02-23T04:18:34;9.90;72.50
24426;DHT22;12611;44.446;26.000;2024-02-23T04:21:02;9.80;72.50
24426;DHT22;12611;44.446;26.000;2024-02-23T04:23:31;9.80;72.60
24426;DHT22;12611;44.446;26.000;2024-02-23T04:26:00;9.80;72.70
24426;DHT22;12611;44.446;26.000;2024-02-23T04:28:28;9.80;72.70
24426;DHT22;12611;44.446;26.000;2024-02-23T04:30:58;9.80;72.70
24426;DHT22;12611;44.446;26.000;2024-02-23T04:33:28;9.70;72.70
24426;DHT22;12611;44.446;26.000;2024-02-23T04:35:57;9.70;72.70
24426;DHT22;12611;44.446;26.000;2024-02-23T04:38:26;9.70;72.80
24426;DHT22;12611;44.446;26.000;2024-02-23T04:40:55;9.70;73.00
24426;DHT22;12611;44.446;26.000;2024-02-23T04:43:24;9.70;73.00
24426;DHT22;12611;44.446;26.000;2024-02-23T04:45:52;9.70;73.00
24426;DHT22;12611;44.446;26.000;2024-02-23T04:48:21;9.70;73.30
24426;DHT22;12611;44.446;26.000;2024-02-23T04:50:51;9.60;73.10
24426;DHT22;12611;44.446;26.000;2024-02-23T04:53:20;9.60;73.30
24426;DHT22;12611;44.446;26.000;2024-02-23T04:55:48;9.60;73.30
24426;DHT22;12611;44.446;26.000;2024-02-23T04:58:17;9.60;73.30
24426;DHT22;12611;44.446;26.000;2024-02-23T05:00:48;9.60;73.50
24426;DHT22;12611;44.446;26.000;2024-02-23T05:03:16;9.60;73.40
24426;DHT22;12611;44.446;26.000;2024-02-23T05:05:45;9.60;73.60
24426;DHT22;12611;44.446;26.000;2024-02-23T05:08:15;9.60;73.70
24426;DHT22;12611;44.446;26.000;2024-02-23T05:10:44;9.50;73.90
24426;DHT22;12611;44.446;26.000;2024-02-23T05:13:12;9.50;73.90
24426;DHT22;12611;44.446;26.000;2024-02-23T05:15:42;9.50;74.00
24426;DHT22;12611;44.446;26.000;2024-02-23T05:18:10;9.50;74.00
24426;DHT22;12611;44.446;26.000;2024-02-23T05:20:39;9.50;74.00
24426;DHT22;12611;44.446;26.000;2024-02-23T05:23:08;9.50;74.10
24426;DHT22;12611;44.446;26.000;2024-02-23T05:25:38;9.50;74.10
24426;DHT22;12611;44.446;26.000;2024-02-23T05:28:06;9.50;74.00
24426;DHT22;12611;44.446;26.000;2024-02-23T05:30:35;9.50;74.00
24426;DHT22;12611;44.446;26.000;2024-02-23T05:33:04;9.50;74.10
24426;DHT22;12611;44.446;26.000;2024-02-23T05:35:33;9.60;74.20
24426;DHT22;12611;44.446;26.000;2024-02-23T05:38:02;9.60;74.10
24426;DHT22;12611;44.446;26.000;2024-02-23T05:40:33;9.60;74.10
24426;DHT22;12611;44.446;26.000;2024-02-23T05:43:04;9.60;74.00
24426;DHT22;12611;44.446;26.000;2024-02-23T05:45:33;9.60;74.00
24426;DHT22;12611;44.446;26.000;2024-02-23T05:48:02;9.60;74.00
24426;DHT22;12611;44.446;26.000;2024-02-23T05:50:31;9.70;74.30
24426;DHT22;12611;44.446;26.000;2024-02-23T05:53:00;9.70;74.20
24426;DHT22;12611;44.446;26.000;2024-02-23T05:55:30;9.70;74.20
24426;DHT22;12611;44.446;26.000;2024-02-23T05:57:59;9.70;74.20
24426;DHT22;12611;44.446;26.000;2024-02-23T06:00:29;9.80;74.30
24426;DHT22;12611;44.446;26.000;2024-02-23T06:02:58;9.80;74.30
24426;DHT22;12611;44.446;26.000;2024-02-23T06:05:27;9.90;74.40
24426;DHT22;12611;44.446;26.000;2024-02-23T06:07:56;9.90;74.40
24426;DHT22;12611;44.446;26.000;2024-02-23T06:10:25;10.00;74.60
24426;DHT22;12611;44.446;26.000;2024-02-23T06:12:54;10.10;74.60
24426;DHT22;12611;44.446;26.000;2024-02-23T06:15:25;10.20;74.70
24426;DHT22;12611;44.446;26.000;2024-02-23T06:17:55;10.30;74.90
24426;DHT22;12611;44.446;26.000;2024-02-23T06:20:23;10.40;74.80
24426;DHT22;12611;44.446;26.000;2024-02-23T06:22:52;10.50;74.90
24426;DHT22;12611;44.446;26.000;2024-02-23T06:25:21;10.60;74.90
24426;DHT22;12611;44.446;26.000;2024-02-23T06:27:49;10.70;74.90
24426;DHT22;12611;44.446;26.000;2024-02-23T06:30:18;10.70;74.90
24426;DHT22;12611;44.446;26.000;2024-02-23T06:32:47;10.80;74.80
24426;DHT22;12611;44.446;26.000;2024-02-23T06:35:19;10.90;75.00
24426;DHT22;12611;44.446;26.000;2024-02-23T06:37:49;11.00;74.90
24426;DHT22;12611;44.446;26.000;2024-02-23T06:40:18;11.00;74.90
24426;DHT22;12611;44.446;26.000;2024-02-23T06:42:46;11.10;75.00
24426;DHT22;12611;44.446;26.000;2024-02-23T06:45:16;11.20;74.90
24426;DHT22;12611;44.446;26.000;2024-02-23T06:47:46;11.30;74.90
24426;DHT22;12611;44.446;26.000;2024-02-23T06:50:15;11.30;74.70
24426;DHT22;12611;44.446;26.000;2024-02-23T06:52:45;11.40;74.80
24426;DHT22;12611;44.446;26.000;2024-02-23T06:55:15;11.50;74.60
24426;DHT22;12611;44.446;26.000;2024-02-23T06:57:47;11.50;74.60
24426;DHT22;12611;44.446;26.000;2024-02-23T07:00:20;11.60;74.40
24426;DHT22;12611;44.446;26.000;2024-02-23T07:02:48;11.70;74.50
24426;DHT22;12611;44.446;26.000;2024-02-23T07:05:17;11.80;74.40
24426;DHT22;12611;44.446;26.000;2024-02-23T07:07:48;11.90;74.40
24426;DHT22;12611;44.446;26.000;2024-02-23T07:10:17;11.90;74.40
24426;DHT22;12611;44.446;26.000;2024-02-23T07:12:47;12.00;74.30
24426;DHT22;12611;44.446;26.000;2024-02-23T07:15:16;12.10;74.40
24426;DHT22;12611;44.446;26.000;2024-02-23T07:17:45;12.20;74.30
24426;DHT22;12611;44.446;26.000;2024-02-23T07:20:14;12.20;74.10
24426;DHT22;12611;44.446;26.000;2024-02-23T07:22:44;12.30;74.20
24426;DHT22;12611;44.446;26.000;2024-02-23T07:25:17;12.40;73.90
24426;DHT22;12611;44.446;26.000;2024-02-23T07:27:48;12.40;73.80
24426;DHT22;12611;44.446;26.000;2024-02-23T07:30:17;12.50;73.90
24426;DHT22;12611;44.446;26.000;2024-02-23T07:32:46;12.50;73.40
24426;DHT22;12611;44.446;26.000;2024-02-23T07:35:19;12.60;73.30
24426;DHT22;12611;44.446;26.000;2024-02-23T07:37:48;12.70;73.50
24426;DHT22;12611;44.446;26.000;2024-02-23T07:40:18;12.80;73.30
24426;DHT22;12611;44.446;26.000;2024-02-23T07:42:48;12.90;73.10
24426;DHT22;12611;44.446;26.000;2024-02-23T07:45:17;12.90;72.70
24426;DHT22;12611;44.446;26.000;2024-02-23T07:47:46;13.00;72.20
24426;DHT22;12611;44.446;26.000;2024-02-23T07:50:15;13.00;72.20
24426;DHT22;12611;44.446;26.000;2024-02-23T07:52:46;13.10;71.40
24426;DHT22;12611;44.446;26.000;2024-02-23T07:55:15;13.10;71.00
24426;DHT22;12611;44.446;26.000;2024-02-23T07:57:45;13.10;71.10
24426;DHT22;12611;44.446;26.000;2024-02-23T08:00:14;13.20;71.20
24426;DHT22;12611;44.446;26.000;2024-02-23T08:02:42;13.30;71.50
24426;DHT22;12611;44.446;26.000;2024-02-23T08:05:11;13.30;70.90
24426;DHT22;12611;44.446;26.000;2024-02-23T08:07:40;13.30;70.80
24426;DHT22;12611;44.446;26.000;2024-02-23T08:10:09;13.40;71.10
24426;DHT22;12611;44.446;26.000;2024-02-23T08:12:40;13.50;70.70
24426;DHT22;12611;44.446;26.000;2024-02-23T08:15:11;13.50;70.30
24426;DHT22;12611;44.446;26.000;2024-02-23T08:17:40;13.50;70.20
24426;DHT22;12611;44.446;26.000;2024-02-23T08:20:10;13.60;69.90
24426;DHT22;12611;44.446;26.000;2024-02-23T08:22:38;13.60;70.00
24426;DHT22;12611;44.446;26.000;2024-02-23T08:25:08;13.70;70.10
24426;DHT22;12611;44.446;26.000;2024-02-23T08:27:41;13.80;70.20
24426;DHT22;12611;44.446;26.000;2024-02-23T08:30:15;13.80;69.80
24426;DHT22;12611;44.446;26.000;2024-02-23T08:32:43;13.90;69.10
24426;DHT22;12611;44.446;26.000;2024-02-23T08:35:12;14.00;69.40
24426;DHT22;12611;44.446;26.000;2024-02-23T08:37:42;14.00;69.10
24426;DHT22;12611;44.446;26.000;2024-02-23T08:40:11;14.10;68.70
24426;DHT22;12611;44.446;26.000;2024-02-23T08:42:40;14.10;67.80
24426;DHT22;12611;44.446;26.000;2024-02-23T08:45:10;14.10;67.70
24426;DHT22;12611;44.446;26.000;2024-02-23T08:47:41;14.20;67.60
24426;DHT22;12611;44.446;26.000;2024-02-23T08:50:10;14.20;67.10
24426;DHT22;12611;44.446;26.000;2024-02-23T08:52:39;14.30;67.20
24426;DHT22;12611;44.446;26.000;2024-02-23T08:55:08;14.30;66.70
24426;DHT22;12611;44.446;26.000;2024-02-23T08:57:38;14.40;67.40
24426;DHT22;12611;44.446;26.000;2024-02-23T09:00:08;14.40;67.00
24426;DHT22;12611;44.446;26.000;2024-02-23T09:02:40;14.50;66.70
24426;DHT22;12611;44.446;26.000;2024-02-23T09:05:10;14.60;65.80
24426;DHT22;12611;44.446;26.000;2024-02-23T09:07:39;14.60;65.50
24426;DHT22;12611;44.446;26.000;2024-02-23T09:10:09;14.70;65.50
24426;DHT22;12611;44.446;26.000;2024-02-23T09:12:39;14.80;65.40
24426;DHT22;12611;44.446;26.000;2024-02-23T09:15:08;14.80;65.70
24426;DHT22;12611;44.446;26.000;2024-02-23T09:17:37;14.90;64.70
24426;DHT22;12611;44.446;26.000;2024-02-23T09:20:11;15.00;64.90
24426;DHT22;12611;44.446;26.000;2024-02-23T09:22:40;15.10;64.80
24426;DHT22;12611;44.446;26.000;2024-02-23T09:25:08;15.20;65.20
24426;DHT22;12611;44.446;26.000;2024-02-23T09:27:37;15.30;64.20
24426;DHT22;12611;44.446;26.000;2024-02-23T09:30:12;15.40;64.80
24426;DHT22;12611;44.446;26.000;2024-02-23T09:32:41;15.50;64.80
24426;DHT22;12611;44.446;26.000;2024-02-23T09:35:13;15.60;64.50
24426;DHT22;12611;44.446;26.000;2024-02-23T09:37:42;15.70;64.50
24426;DHT22;12611;44.446;26.000;2024-02-23T09:40:11;15.80;64.50
24426;DHT22;12611;44.446;26.000;2024-02-23T09:42:42;15.90;62.20
24426;DHT22;12611;44.446;26.000;2024-02-23T09:45:12;16.00;60.90
24426;DHT22;12611;44.446;26.000;2024-02-23T09:47:41;16.10;61.00
24426;DHT22;12611;44.446;26.000;2024-02-23T09:50:13;16.20;60.50
24426;DHT22;12611;44.446;26.000;2024-02-23T09:52:42;16.30;61.30
24426;DHT22;12611;44.446;26.000;2024-02-23T09:55:11;16.30;59.30
24426;DHT22;12611;44.446;26.000;2024-02-23T09:57:39;16.40;59.40
24426;DHT22;12611;44.446;26.000;2024-02-23T10:00:09;16.50;59.30
24426;DHT22;12611;44.446;26.000;2024-02-23T10:02:39;16.60;58.40
24426;DHT22;12611;44.446;26.000;2024-02-23T10:05:11;16.60;57.50
24426;DHT22;12611;44.446;26.000;2024-02-23T10:07:41;16.60;57.70
24426;DHT22;12611;44.446;26.000;2024-02-23T10:10:10;16.70;58.60
24426;DHT22;12611;44.446;26.000;2024-02-23T10:12:39;16.70;58.60
24426;DHT22;12611;44.446;26.000;2024-02-23T10:15:08;16.80;57.20
24426;DHT22;12611;44.446;26.000;2024-02-23T10:17:37;16.90;56.30
24426;DHT22;12611;44.446;26.000;2024-02-23T10:20:07;17.00;56.50
24426;DHT22;12611;44.446;26.000;2024-02-23T10:22:39;17.10;56.10
24426;DHT22;12611;44.446;26.000;2024-02-23T10:25:08;17.20;54.80
24426;DHT22;12611;44.446;26.000;2024-02-23T10:27:37;17.20;54.60
24426;DHT22;12611;44.446;26.000;2024-02-23T10:30:06;17.30;54.30
24426;DHT22;12611;44.446;26.000;2024-02-23T10:32:39;17.40;54.20
24426;DHT22;12611;44.446;26.000;2024-02-23T10:35:13;17.40;54.90
24426;DHT22;12611;44.446;26.000;2024-02-23T10:37:48;17.50;55.30
24426;DHT22;12611;44.446;26.000;2024-02-23T10:40:20;17.60;53.40
24426;DHT22;12611;44.446;26.000;2024-02-23T10:42:50;17.60;53.60
24426;DHT22;12611;44.446;26.000;2024-02-23T10:45:21;17.70;53.50
24426;DHT22;12611;44.446;26.000;2024-02-23T10:47:51;17.80;53.20
24426;DHT22;12611;44.446;26.000;2024-02-23T10:50:20;17.80;52.30
24426;DHT22;12611;44.446;26.000;2024-02-23T10:52:51;17.90;53.50
24426;DHT22;12611;44.446;26.000;2024-02-23T10:55:21;17.90;52.70
24426;DHT22;12611;44.446;26.000;2024-02-23T10:57:51;18.00;52.90
24426;DHT22;12611;44.446;26.000;2024-02-23T11:00:22;18.10;52.40
24426;DHT22;12611;44.446;26.000;2024-02-23T11:02:52;18.20;53.10
24426;DHT22;12611;44.446;26.000;2024-02-23T11:05:23;18.20;52.80
24426;DHT22;12611;44.446;26.000;2024-02-23T11:07:56;18.30;53.40
24426;DHT22;12611;44.446;26.000;2024-02-23T11:10:24;18.40;52.20
24426;DHT22;12611;44.446;26.000;2024-02-23T11:12:59;18.50;53.00
24426;DHT22;12611;44.446;26.000;2024-02-23T11:15:29;18.60;52.10
24426;DHT22;12611;44.446;26.000;2024-02-23T11:18:00;18.60;51.30
24426;DHT22;12611;44.446;26.000;2024-02-23T11:20:34;18.60;50.20
24426;DHT22;12611;44.446;26.000;2024-02-23T11:23:14;18.60;49.80
24426;DHT22;12611;44.446;26.000;2024-02-23T11:25:58;18.70;50.00
24426;DHT22;12611;44.446;26.000;2024-02-23T11:28:26;18.70;50.40
24426;DHT22;12611;44.446;26.000;2024-02-23T11:30:56;18.80;51.00
24426;DHT22;12611;44.446;26.000;2024-02-23T11:33:29;18.90;50.90
24426;DHT22;12611;44.446;26.000;2024-02-23T11:36:06;19.00;51.00
24426;DHT22;12611;44.446;26.000;2024-02-23T11:38:36;19.00;49.10
24426;DHT22;12611;44.446;26.000;2024-02-23T11:41:07;19.00;49.40
24426;DHT22;12611;44.446;26.000;2024-02-23T11:43:37;19.00;49.20
24426;DHT22;12611;44.446;26.000;2024-02-23T11:46:07;19.10;49.40
24426;DHT22;12611;44.446;26.000;2024-02-23T11:48:36;19.20;48.70
24426;DHT22;12611;44.446;26.000;2024-02-23T11:51:05;19.20;48.20
24426;DHT22;12611;44.446;26.000;2024-02-23T11:53:34;19.20;48.10
24426;DHT22;12611;44.446;26.000;2024-02-23T11:56:05;19.30;47.40
24426;DHT22;12611;44.446;26.000;2024-02-23T11:58:34;19.30;48.10
24426;DHT22;12611;44.446;26.000;2024-02-23T12:01:04;19.40;47.60
24426;DHT22;12611;44.446;26.000;2024-02-23T12:03:34;19.40;47.80
24426;DHT22;12611;44.446;26.000;2024-02-23T12:06:04;19.50;46.80
24426;DHT22;12611;44.446;26.000;2024-02-23T12:08:33;19.60;47.50
24426;DHT22;12611;44.446;26.000;2024-02-23T12:11:07;19.70;47.50
24426;DHT22;12611;44.446;26.000;2024-02-23T12:13:37;19.70;48.00
24426;DHT22;12611;44.446;26.000;2024-02-23T12:16:07;19.80;47.80
24426;DHT22;12611;44.446;26.000;2024-02-23T12:18:36;19.80;46.50
24426;DHT22;12611;44.446;26.000;2024-02-23T12:21:06;19.90;46.10
24426;DHT22;12611;44.446;26.000;2024-02-23T12:23:40;19.90;46.90
24426;DHT22;12611;44.446;26.000;2024-02-23T12:26:12;20.00;45.40
24426;DHT22;12611;44.446;26.000;2024-02-23T12:28:44;20.00;45.60
24426;DHT22;12611;44.446;26.000;2024-02-23T12:31:13;20.10;46.40
24426;DHT22;12611;44.446;26.000;2024-02-23T12:33:42;20.10;45.40
24426;DHT22;12611;44.446;26.000;2024-02-23T12:36:15;20.10;44.40
24426;DHT22;12611;44.446;26.000;2024-02-23T12:38:45;20.20;44.50
24426;DHT22;12611;44.446;26.000;2024-02-23T12:41:15;20.20;44.30
24426;DHT22;12611;44.446;26.000;2024-02-23T12:43:43;20.30;45.30
24426;DHT22;12611;44.446;26.000;2024-02-23T12:46:15;20.30;44.80
24426;DHT22;12611;44.446;26.000;2024-02-23T12:48:44;20.30;44.50
24426;DHT22;12611;44.446;26.000;2024-02-23T12:51:12;20.40;44.60
24426;DHT22;12611;44.446;26.000;2024-02-23T12:53:43;20.40;44.40
24426;DHT22;12611;44.446;26.000;2024-02-23T12:56:14;20.50;44.50
24426;DHT22;12611;44.446;26.000;2024-02-23T12:58:45;20.50;43.90
24426;DHT22;12611;44.446;26.000;2024-02-23T13:01:13;20.60;44.40
24426;DHT22;12611;44.446;26.000;2024-02-23T13:03:42;20.70;45.20
24426;DHT22;12611;44.446;26.000;2024-02-23T13:06:11;20.90;45.50
24426;DHT22;12611;44.446;26.000;2024-02-23T13:08:40;21.20;46.20
24426;DHT22;12611;44.446;26.000;2024-02-23T13:11:09;21.50;46.30
24426;DHT22;12611;44.446;26.000;2024-02-23T13:13:40;21.60;45.10
24426;DHT22;12611;44.446;26.000;2024-02-23T13:16:10;21.90;44.40
24426;DHT22;12611;44.446;26.000;2024-02-23T13:18:42;22.10;43.50
24426;DHT22;12611;44.446;26.000;2024-02-23T13:21:11;22.30;43.50
24426;DHT22;12611;44.446;26.000;2024-02-23T13:23:49;22.50;43.10
24426;DHT22;12611;44.446;26.000;2024-02-23T13:26:23;22.60;42.70
24426;DHT22;12611;44.446;26.000;2024-02-23T13:29:03;22.80;42.60
24426;DHT22;12611;44.446;26.000;2024-02-23T13:31:32;23.10;43.60
24426;DHT22;12611;44.446;26.000;2024-02-23T13:34:06;23.40;44.00
24426;DHT22;12611;44.446;26.000;2024-02-23T13:36:40;23.80;42.90
24426;DHT22;12611;44.446;26.000;2024-02-23T13:39:32;24.30;42.50
24426;DHT22;12611;44.446;26.000;2024-02-23T13:42:01;24.60;40.80
24426;DHT22;12611;44.446;26.000;2024-02-23T13:44:44;24.60;39.30
24426;DHT22;12611;44.446;26.000;2024-02-23T13:47:13;24.50;38.70
24426;DHT22;12611;44.446;26.000;2024-02-23T13:49:46;24.50;39.20
24426;DHT22;12611;44.446;26.000;2024-02-23T13:52:17;24.60;38.40
24426;DHT22;12611;44.446;26.000;2024-02-23T13:54:46;25.10;38.20
24426;DHT22;12611;44.446;26.000;2024-02-23T13:57:15;26.00;38.30
24426;DHT22;12611;44.446;26.000;2024-02-23T13:59:45;26.40;37.70
24426;DHT22;12611;44.446;26.000;2024-02-23T14:02:16;27.30;36.20
24426;DHT22;12611;44.446;26.000;2024-02-23T14:04:46;27.00;35.10
24426;DHT22;12611;44.446;26.000;2024-02-23T14:07:14;26.50;36.50
24426;DHT22;12611;44.446;26.000;2024-02-23T14:09:44;28.40;35.20
24426;DHT22;12611;44.446;26.000;2024-02-23T14:12:13;29.90;33.60
24426;DHT22;12611;44.446;26.000;2024-02-23T14:14:43;29.70;33.30
24426;DHT22;12611;44.446;26.000;2024-02-23T14:17:12;29.60;32.40
24426;DHT22;12611;44.446;26.000;2024-02-23T14:19:41;29.70;32.20
24426;DHT22;12611;44.446;26.000;2024-02-23T14:22:10;29.90;31.00
24426;DHT22;12611;44.446;26.000;2024-02-23T14:24:39;30.10;31.30
24426;DHT22;12611;44.446;26.000;2024-02-23T14:27:08;29.50;31.70
24426;DHT22;12611;44.446;26.000;2024-02-23T14:29:36;28.90;31.80
24426;DHT22;12611;44.446;26.000;2024-02-23T14:32:07;28.00;32.50
24426;DHT22;12611;44.446;26.000;2024-02-23T14:34:36;27.50;33.60
24426;DHT22;12611;44.446;26.000;2024-02-23T14:37:04;27.40;32.90
24426;DHT22;12611;44.446;26.000;2024-02-23T14:39:33;27.00;33.40
24426;DHT22;12611;44.446;26.000;2024-02-23T14:42:02;26.60;33.20
24426;DHT22;12611;44.446;26.000;2024-02-23T14:44:31;26.10;33.70
24426;DHT22;12611;44.446;26.000;2024-02-23T14:46:59;25.90;34.60
24426;DHT22;12611;44.446;26.000;2024-02-23T14:49:30;26.20;34.70
24426;DHT22;12611;44.446;26.000;2024-02-23T14:51:59;26.50;34.30
24426;DHT22;12611;44.446;26.000;2024-02-23T14:54:27;26.60;34.30
24426;DHT22;12611;44.446;26.000;2024-02-23T14:56:57;26.00;34.30
24426;DHT22;12611;44.446;26.000;2024-02-23T14:59:25;25.40;34.60
24426;DHT22;12611;44.446;26.000;2024-02-23T15:01:54;25.00;35.20
24426;DHT22;12611;44.446;26.000;2024-02-23T15:04:23;24.60;35.70
24426;DHT22;12611;44.446;26.000;2024-02-23T15:06:53;24.50;36.20
24426;DHT22;12611;44.446;26.000;2024-02-23T15:09:22;24.20;36.60
24426;DHT22;12611;44.446;26.000;2024-02-23T15:11:50;23.80;37.10
24426;DHT22;12611;44.446;26.000;2024-02-23T15:14:20;23.50;37.60
24426;DHT22;12611;44.446;26.000;2024-02-23T15:16:48;23.10;38.00
24426;DHT22;12611;44.446;26.000;2024-02-23T15:19:17;22.90;38.60
24426;DHT22;12611;44.446;26.000;2024-02-23T15:21:46;22.60;38.90
24426;DHT22;12611;44.446;26.000;2024-02-23T15:24:16;22.30;39.40
24426;DHT22;12611;44.446;26.000;2024-02-23T15:26:46;22.10;39.80
24426;DHT22;12611;44.446;26.000;2024-02-23T15:29:15;21.90;40.20
24426;DHT22;12611;44.446;26.000;2024-02-23T15:31:44;21.70;40.60
24426;DHT22;12611;44.446;26.000;2024-02-23T15:34:13;21.40;40.90